sensor_id;sensor_type;location;lat;lon;timestamp;P1;durP1;ratioP1;P2;durP2;ratioP2
819;SDS011;392;48.838;2.322;2023-07-24T00:01:23;3.70;;;3.50;;
819;SDS011;392;48.838;2.322;2023-07-24T00:03:51;4.27;;;3.43;;
819;SDS011;392;48.838;2.322;2023-07-24T00:06:20;4.27;;;3.83;;
819;SDS011;392;48.838;2.322;2023-07-24T00:08:47;3.67;;;3.47;;
819;SDS011;392;48.838;2.322;2023-07-24T00:11:14;3.77;;;3.47;;
819;SDS011;392;48.838;2.322;2023-07-24T00:13:42;4.47;;;3.80;;
819;SDS011;392;48.838;2.322;2023-07-24T00:16:10;4.37;;;3.97;;
819;SDS011;392;48.838;2.322;2023-07-24T00:18:39;3.77;;;3.47;;
819;SDS011;392;48.838;2.322;2023-07-24T00:21:08;3.43;;;3.20;;
819;SDS011;392;48.838;2.322;2023-07-24T00:23:36;3.77;;;3.47;;
819;SDS011;392;48.838;2.322;2023-07-24T00:26:03;3.60;;;3.40;;
819;SDS011;392;48.838;2.322;2023-07-24T00:28:32;3.33;;;3.03;;
819;SDS011;392;48.838;2.322;2023-07-24T00:30:59;5.07;;;4.57;;
819;SDS011;392;48.838;2.322;2023-07-24T00:33:27;3.60;;;3.33;;
819;SDS011;392;48.838;2.322;2023-07-24T00:35:58;4.30;;;3.30;;
819;SDS011;392;48.838;2.322;2023-07-24T00:38:26;3.47;;;3.23;;
819;SDS011;392;48.838;2.322;2023-07-24T00:40:53;3.70;;;3.40;;
819;SDS011;392;48.838;2.322;2023-07-24T00:43:21;3.50;;;3.20;;
819;SDS011;392;48.838;2.322;2023-07-24T00:45:50;3.30;;;3.00;;
819;SDS011;392;48.838;2.322;2023-07-24T00:48:18;4.40;;;4.10;;
819;SDS011;392;48.838;2.322;2023-07-24T00:50:45;3.70;;;3.40;;
819;SDS011;392;48.838;2.322;2023-07-24T00:53:15;3.33;;;3.13;;
819;SDS011;392;48.838;2.322;2023-07-24T00:55:44;3.40;;;3.20;;
819;SDS011;392;48.838;2.322;2023-07-24T00:58:11;4.43;;;4.00;;
819;SDS011;392;48.838;2.322;2023-07-24T01:00:39;3.67;;;3.47;;
819;SDS011;392;48.838;2.322;2023-07-24T01:03:07;4.50;;;3.90;;
819;SDS011;392;48.838;2.322;2023-07-24T01:05:37;5.23;;;4.27;;
819;SDS011;392;48.838;2.322;2023-07-24T01:08:06;3.80;;;3.50;;
819;SDS011;392;48.838;2.322;2023-07-24T01:10:36;4.20;;;3.90;;
819;SDS011;392;48.838;2.322;2023-07-24T01:13:05;4.70;;;4.30;;
819;SDS011;392;48.838;2.322;2023-07-24T01:15:42;3.73;;;3.43;;
819;SDS011;392;48.838;2.322;2023-07-24T01:18:15;3.87;;;3.57;;
819;SDS011;392;48.838;2.322;2023-07-24T01:20:46;3.87;;;3.57;;
819;SDS011;392;48.838;2.322;2023-07-24T01:23:22;4.30;;;4.00;;
819;SDS011;392;48.838;2.322;2023-07-24T01:26:09;3.93;;;3.63;;
819;SDS011;392;48.838;2.322;2023-07-24T01:28:37;4.20;;;3.80;;
819;SDS011;392;48.838;2.322;2023-07-24T01:31:05;4.00;;;3.70;;
819;SDS011;392;48.838;2.322;2023-07-24T01:33:33;4.10;;;3.80;;
819;SDS011;392;48.838;2.322;2023-07-24T01:36:02;4.50;;;3.90;;
819;SDS011;392;48.838;2.322;2023-07-24T01:38:31;4.67;;;3.80;;
819;SDS011;392;48.838;2.322;2023-07-24T01:41:05;4.00;;;3.70;;
819;SDS011;392;48.838;2.322;2023-07-24T01:43:38;4.77;;;4.40;;
819;SDS011;392;48.838;2.322;2023-07-24T01:46:05;4.77;;;4.37;;
819;SDS011;392;48.838;2.322;2023-07-24T01:48:35;3.60;;;3.30;;
819;SDS011;392;48.838;2.322;2023-07-24T01:51:04;6.37;;;3.83;;
819;SDS011;392;48.838;2.322;2023-07-24T01:53:32;4.37;;;4.07;;
819;SDS011;392;48.838;2.322;2023-07-24T01:56:01;4.10;;;3.80;;
819;SDS011;392;48.838;2.322;2023-07-24T01:58:29;4.10;;;3.80;;
819;SDS011;392;48.838;2.322;2023-07-24T02:00:58;4.20;;;3.83;;
819;SDS011;392;48.838;2.322;2023-07-24T02:03:26;4.27;;;3.97;;
819;SDS011;392;48.838;2.322;2023-07-24T02:05:53;4.13;;;3.73;;
819;SDS011;392;48.838;2.322;2023-07-24T02:08:21;4.43;;;4.03;;
819;SDS011;392;48.838;2.322;2023-07-24T02:10:49;4.57;;;4.17;;
819;SDS011;392;48.838;2.322;2023-07-24T02:13:17;4.10;;;3.80;;
819;SDS011;392;48.838;2.322;2023-07-24T02:15:48;4.27;;;3.87;;
819;SDS011;392;48.838;2.322;2023-07-24T02:18:19;4.47;;;4.17;;
819;SDS011;392;48.838;2.322;2023-07-24T02:20:48;4.97;;;4.10;;
819;SDS011;392;48.838;2.322;2023-07-24T02:23:16;4.60;;;4.00;;
819;SDS011;392;48.838;2.322;2023-07-24T02:25:44;4.27;;;3.97;;
819;SDS011;392;48.838;2.322;2023-07-24T02:28:12;4.80;;;4.40;;
819;SDS011;392;48.838;2.322;2023-07-24T02:30:40;4.10;;;3.80;;
819;SDS011;392;48.838;2.322;2023-07-24T02:33:08;4.73;;;4.33;;
819;SDS011;392;48.838;2.322;2023-07-24T02:35:41;4.63;;;4.23;;
819;SDS011;392;48.838;2.322;2023-07-24T02:38:10;4.87;;;4.47;;
819;SDS011;392;48.838;2.322;2023-07-24T02:40:40;4.37;;;3.63;;
819;SDS011;392;48.838;2.322;2023-07-24T02:43:10;4.20;;;3.60;;
819;SDS011;392;48.838;2.322;2023-07-24T02:45:38;4.37;;;4.00;;
819;SDS011;392;48.838;2.322;2023-07-24T02:48:06;4.63;;;4.23;;
819;SDS011;392;48.838;2.322;2023-07-24T02:50:34;4.33;;;3.93;;
819;SDS011;392;48.838;2.322;2023-07-24T02:53:03;3.90;;;3.60;;
819;SDS011;392;48.838;2.322;2023-07-24T02:55:30;4.17;;;3.87;;
819;SDS011;392;48.838;2.322;2023-07-24T02:57:59;4.67;;;4.17;;
819;SDS011;392;48.838;2.322;2023-07-24T03:00:28;3.60;;;3.40;;
819;SDS011;392;48.838;2.322;2023-07-24T03:02:56;4.60;;;4.20;;
819;SDS011;392;48.838;2.322;2023-07-24T03:05:23;4.27;;;3.87;;
819;SDS011;392;48.838;2.322;2023-07-24T03:07:50;4.30;;;4.00;;
819;SDS011;392;48.838;2.322;2023-07-24T03:10:20;4.50;;;4.10;;
819;SDS011;392;48.838;2.322;2023-07-24T03:12:49;3.93;;;3.63;;
819;SDS011;392;48.838;2.322;2023-07-24T03:15:16;4.57;;;4.17;;
819;SDS011;392;48.838;2.322;2023-07-24T03:17:46;3.63;;;3.30;;
819;SDS011;392;48.838;2.322;2023-07-24T03:20:14;3.90;;;3.60;;
819;SDS011;392;48.838;2.322;2023-07-24T03:22:43;4.57;;;4.27;;
819;SDS011;392;48.838;2.322;2023-07-24T03:25:11;4.87;;;4.47;;
819;SDS011;392;48.838;2.322;2023-07-24T03:27:41;4.40;;;4.10;;
819;SDS011;392;48.838;2.322;2023-07-24T03:30:09;4.80;;;4.00;;
819;SDS011;392;48.838;2.322;2023-07-24T03:32:37;4.30;;;4.00;;
819;SDS011;392;48.838;2.322;2023-07-24T03:35:05;4.20;;;3.90;;
819;SDS011;392;48.838;2.322;2023-07-24T03:37:34;4.50;;;4.10;;
819;SDS011;392;48.838;2.322;2023-07-24T03:40:03;4.13;;;3.83;;
819;SDS011;392;48.838;2.322;2023-07-24T03:42:31;3.53;;;3.23;;
819;SDS011;392;48.838;2.322;2023-07-24T03:45:01;4.80;;;4.40;;
819;SDS011;392;48.838;2.322;2023-07-24T03:47:30;3.80;;;3.50;;
819;SDS011;392;48.838;2.322;2023-07-24T03:49:57;4.10;;;3.80;;
819;SDS011;392;48.838;2.322;2023-07-24T03:52:24;4.00;;;3.70;;
819;SDS011;392;48.838;2.322;2023-07-24T03:54:53;4.03;;;3.73;;
819;SDS011;392;48.838;2.322;2023-07-24T03:57:21;3.70;;;3.40;;
819;SDS011;392;48.838;2.322;2023-07-24T03:59:48;3.93;;;3.63;;
819;SDS011;392;48.838;2.322;2023-07-24T04:02:17;3.30;;;3.10;;
819;SDS011;392;48.838;2.322;2023-07-24T04:04:45;4.00;;;3.70;;
819;SDS011;392;48.838;2.322;2023-07-24T04:07:13;3.97;;;3.63;;
819;SDS011;392;48.838;2.322;2023-07-24T04:09:41;4.53;;;4.10;;
819;SDS011;392;48.838;2.322;2023-07-24T04:12:08;4.30;;;4.00;;
819;SDS011;392;48.838;2.322;2023-07-24T04:14:36;4.00;;;3.70;;
819;SDS011;392;48.838;2.322;2023-07-24T04:17:04;3.60;;;3.40;;
819;SDS011;392;48.838;2.322;2023-07-24T04:19:33;4.17;;;3.40;;
819;SDS011;392;48.838;2.322;2023-07-24T04:22:01;3.63;;;3.43;;
819;SDS011;392;48.838;2.322;2023-07-24T04:24:28;3.20;;;2.97;;
819;SDS011;392;48.838;2.322;2023-07-24T04:26:56;3.47;;;3.17;;
819;SDS011;392;48.838;2.322;2023-07-24T04:29:23;3.30;;;3.10;;
819;SDS011;392;48.838;2.322;2023-07-24T04:31:51;3.13;;;3.00;;
819;SDS011;392;48.838;2.322;2023-07-24T04:34:19;3.23;;;3.03;;
819;SDS011;392;48.838;2.322;2023-07-24T04:36:47;3.00;;;2.80;;
819;SDS011;392;48.838;2.322;2023-07-24T04:39:15;3.07;;;2.87;;
819;SDS011;392;48.838;2.322;2023-07-24T04:41:42;3.00;;;2.90;;
819;SDS011;392;48.838;2.322;2023-07-24T04:44:10;3.40;;;3.20;;
819;SDS011;392;48.838;2.322;2023-07-24T04:46:37;3.10;;;2.90;;
819;SDS011;392;48.838;2.322;2023-07-24T04:49:05;3.07;;;2.90;;
819;SDS011;392;48.838;2.322;2023-07-24T04:51:32;3.33;;;3.07;;
819;SDS011;392;48.838;2.322;2023-07-24T04:54:03;3.10;;;2.90;;
819;SDS011;392;48.838;2.322;2023-07-24T04:56:30;3.37;;;3.07;;
819;SDS011;392;48.838;2.322;2023-07-24T04:58:58;3.13;;;2.90;;
819;SDS011;392;48.838;2.322;2023-07-24T05:01:26;2.30;;;2.20;;
819;SDS011;392;48.838;2.322;2023-07-24T05:03:53;3.00;;;2.67;;
819;SDS011;392;48.838;2.322;2023-07-24T05:06:21;2.80;;;2.60;;
819;SDS011;392;48.838;2.322;2023-07-24T05:08:48;3.20;;;3.00;;
819;SDS011;392;48.838;2.322;2023-07-24T05:11:18;2.60;;;2.40;;
819;SDS011;392;48.838;2.322;2023-07-24T05:13:46;2.97;;;2.70;;
819;SDS011;392;48.838;2.322;2023-07-24T05:16:14;2.57;;;2.47;;
819;SDS011;392;48.838;2.322;2023-07-24T05:18:41;3.80;;;2.60;;
819;SDS011;392;48.838;2.322;2023-07-24T05:21:08;3.03;;;2.43;;
819;SDS011;392;48.838;2.322;2023-07-24T05:23:36;3.10;;;2.90;;
819;SDS011;392;48.838;2.322;2023-07-24T05:26:03;2.80;;;2.40;;
819;SDS011;392;48.838;2.322;2023-07-24T05:28:33;2.57;;;2.37;;
819;SDS011;392;48.838;2.322;2023-07-24T05:31:01;2.37;;;2.27;;
819;SDS011;392;48.838;2.322;2023-07-24T05:33:29;2.40;;;2.30;;
819;SDS011;392;48.838;2.322;2023-07-24T05:35:59;2.70;;;2.50;;
819;SDS011;392;48.838;2.322;2023-07-24T05:38:27;2.73;;;2.43;;
819;SDS011;392;48.838;2.322;2023-07-24T05:40:55;2.50;;;2.30;;
819;SDS011;392;48.838;2.322;2023-07-24T05:43:23;2.47;;;2.27;;
819;SDS011;392;48.838;2.322;2023-07-24T05:45:54;2.63;;;2.43;;
819;SDS011;392;48.838;2.322;2023-07-24T05:48:23;2.30;;;2.10;;
819;SDS011;392;48.838;2.322;2023-07-24T05:50:51;2.87;;;2.50;;
819;SDS011;392;48.838;2.322;2023-07-24T05:53:19;1.73;;;1.70;;
819;SDS011;392;48.838;2.322;2023-07-24T05:55:47;2.10;;;2.00;;
819;SDS011;392;48.838;2.322;2023-07-24T05:58:24;2.40;;;2.30;;
819;SDS011;392;48.838;2.322;2023-07-24T06:00:51;2.30;;;2.20;;
819;SDS011;392;48.838;2.322;2023-07-24T06:03:21;2.60;;;2.40;;
819;SDS011;392;48.838;2.322;2023-07-24T06:05:50;2.20;;;2.07;;
819;SDS011;392;48.838;2.322;2023-07-24T06:08:19;2.90;;;2.20;;
819;SDS011;392;48.838;2.322;2023-07-24T06:10:47;2.50;;;2.40;;
819;SDS011;392;48.838;2.322;2023-07-24T06:13:15;2.10;;;2.00;;
819;SDS011;392;48.838;2.322;2023-07-24T06:15:43;2.57;;;2.47;;
819;SDS011;392;48.838;2.322;2023-07-24T06:18:12;2.60;;;2.40;;
819;SDS011;392;48.838;2.322;2023-07-24T06:20:40;3.07;;;2.17;;
819;SDS011;392;48.838;2.322;2023-07-24T06:23:07;2.90;;;2.70;;
819;SDS011;392;48.838;2.322;2023-07-24T06:25:36;2.30;;;2.20;;
819;SDS011;392;48.838;2.322;2023-07-24T06:28:03;3.83;;;2.67;;
819;SDS011;392;48.838;2.322;2023-07-24T06:30:31;8.17;;;2.90;;
819;SDS011;392;48.838;2.322;2023-07-24T06:32:58;3.80;;;3.37;;
819;SDS011;392;48.838;2.322;2023-07-24T06:35:26;2.97;;;2.67;;
819;SDS011;392;48.838;2.322;2023-07-24T06:37:54;3.80;;;2.40;;
819;SDS011;392;48.838;2.322;2023-07-24T06:40:21;2.20;;;2.10;;
819;SDS011;392;48.838;2.322;2023-07-24T06:42:49;2.17;;;2.07;;
819;SDS011;392;48.838;2.322;2023-07-24T06:45:16;2.93;;;2.63;;
819;SDS011;392;48.838;2.322;2023-07-24T06:47:44;2.50;;;2.30;;
819;SDS011;392;48.838;2.322;2023-07-24T06:50:13;2.50;;;2.40;;
819;SDS011;392;48.838;2.322;2023-07-24T06:52:42;2.03;;;2.00;;
819;SDS011;392;48.838;2.322;2023-07-24T06:55:10;3.10;;;2.40;;
819;SDS011;392;48.838;2.322;2023-07-24T06:57:37;2.43;;;2.30;;
819;SDS011;392;48.838;2.322;2023-07-24T07:00:06;2.40;;;2.30;;
819;SDS011;392;48.838;2.322;2023-07-24T07:02:37;2.50;;;2.30;;
819;SDS011;392;48.838;2.322;2023-07-24T07:05:05;2.20;;;2.10;;
819;SDS011;392;48.838;2.322;2023-07-24T07:07:33;2.70;;;2.50;;
819;SDS011;392;48.838;2.322;2023-07-24T07:10:02;2.30;;;2.20;;
819;SDS011;392;48.838;2.322;2023-07-24T07:12:30;2.10;;;2.00;;
819;SDS011;392;48.838;2.322;2023-07-24T07:14:58;2.40;;;2.27;;
819;SDS011;392;48.838;2.322;2023-07-24T07:17:26;2.40;;;2.30;;
819;SDS011;392;48.838;2.322;2023-07-24T07:19:53;2.10;;;2.00;;
819;SDS011;392;48.838;2.322;2023-07-24T07:22:21;2.47;;;2.37;;
819;SDS011;392;48.838;2.322;2023-07-24T07:24:49;2.40;;;2.30;;
819;SDS011;392;48.838;2.322;2023-07-24T07:27:18;2.70;;;2.60;;
819;SDS011;392;48.838;2.322;2023-07-24T07:29:45;3.00;;;2.80;;
819;SDS011;392;48.838;2.322;2023-07-24T07:32:12;2.63;;;2.40;;
819;SDS011;392;48.838;2.322;2023-07-24T07:34:40;3.00;;;2.73;;
819;SDS011;392;48.838;2.322;2023-07-24T07:37:07;2.83;;;2.73;;
819;SDS011;392;48.838;2.322;2023-07-24T07:39:35;2.70;;;2.50;;
819;SDS011;392;48.838;2.322;2023-07-24T07:42:04;2.40;;;2.30;;
819;SDS011;392;48.838;2.322;2023-07-24T07:44:34;2.53;;;2.33;;
819;SDS011;392;48.838;2.322;2023-07-24T07:47:02;2.43;;;2.30;;
819;SDS011;392;48.838;2.322;2023-07-24T07:49:30;2.40;;;2.30;;
819;SDS011;392;48.838;2.322;2023-07-24T07:51:58;2.40;;;1.93;;
819;SDS011;392;48.838;2.322;2023-07-24T07:54:25;2.50;;;2.30;;
819;SDS011;392;48.838;2.322;2023-07-24T07:56:53;3.50;;;2.53;;
819;SDS011;392;48.838;2.322;2023-07-24T07:59:21;2.50;;;2.40;;
819;SDS011;392;48.838;2.322;2023-07-24T08:01:49;2.77;;;2.57;;
819;SDS011;392;48.838;2.322;2023-07-24T08:04:17;2.37;;;2.27;;
819;SDS011;392;48.838;2.322;2023-07-24T08:06:44;2.40;;;2.20;;
819;SDS011;392;48.838;2.322;2023-07-24T08:09:12;2.33;;;2.23;;
819;SDS011;392;48.838;2.322;2023-07-24T08:11:40;2.37;;;2.27;;
819;SDS011;392;48.838;2.322;2023-07-24T08:14:07;2.60;;;2.40;;
819;SDS011;392;48.838;2.322;2023-07-24T08:16:35;2.60;;;2.40;;
819;SDS011;392;48.838;2.322;2023-07-24T08:19:04;4.87;;;2.63;;
819;SDS011;392;48.838;2.322;2023-07-24T08:21:31;2.50;;;2.30;;
819;SDS011;392;48.838;2.322;2023-07-24T08:23:58;2.33;;;2.23;;
819;SDS011;392;48.838;2.322;2023-07-24T08:26:27;2.20;;;2.10;;
819;SDS011;392;48.838;2.322;2023-07-24T08:28:57;3.60;;;2.87;;
819;SDS011;392;48.838;2.322;2023-07-24T08:31:24;2.90;;;2.80;;
819;SDS011;392;48.838;2.322;2023-07-24T08:33:54;3.03;;;2.70;;
819;SDS011;392;48.838;2.322;2023-07-24T08:36:23;2.60;;;2.50;;
819;SDS011;392;48.838;2.322;2023-07-24T08:38:50;3.20;;;3.00;;
819;SDS011;392;48.838;2.322;2023-07-24T08:41:17;2.87;;;2.77;;
819;SDS011;392;48.838;2.322;2023-07-24T08:43:45;3.07;;;2.87;;
819;SDS011;392;48.838;2.322;2023-07-24T08:46:14;2.57;;;2.27;;
819;SDS011;392;48.838;2.322;2023-07-24T08:48:42;2.97;;;2.70;;
819;SDS011;392;48.838;2.322;2023-07-24T08:51:12;2.70;;;2.60;;
819;SDS011;392;48.838;2.322;2023-07-24T08:53:43;2.27;;;2.07;;
819;SDS011;392;48.838;2.322;2023-07-24T08:56:11;2.53;;;2.43;;
819;SDS011;392;48.838;2.322;2023-07-24T08:58:39;2.60;;;2.50;;
819;SDS011;392;48.838;2.322;2023-07-24T09:01:08;2.33;;;2.23;;
819;SDS011;392;48.838;2.322;2023-07-24T09:03:37;2.97;;;2.80;;
819;SDS011;392;48.838;2.322;2023-07-24T09:06:05;3.03;;;2.83;;
819;SDS011;392;48.838;2.322;2023-07-24T09:08:33;3.03;;;2.93;;
819;SDS011;392;48.838;2.322;2023-07-24T09:11:05;2.83;;;2.53;;
819;SDS011;392;48.838;2.322;2023-07-24T09:13:35;2.70;;;2.60;;
819;SDS011;392;48.838;2.322;2023-07-24T09:16:04;3.00;;;2.80;;
819;SDS011;392;48.838;2.322;2023-07-24T09:18:38;2.93;;;2.73;;
819;SDS011;392;48.838;2.322;2023-07-24T09:21:07;2.70;;;2.60;;
819;SDS011;392;48.838;2.322;2023-07-24T09:23:34;2.63;;;2.53;;
819;SDS011;392;48.838;2.322;2023-07-24T09:26:06;2.37;;;2.27;;
819;SDS011;392;48.838;2.322;2023-07-24T09:28:34;3.80;;;3.50;;
819;SDS011;392;48.838;2.322;2023-07-24T09:31:03;2.80;;;2.70;;
819;SDS011;392;48.838;2.322;2023-07-24T09:33:34;2.80;;;2.70;;
819;SDS011;392;48.838;2.322;2023-07-24T09:36:03;2.70;;;2.50;;
819;SDS011;392;48.838;2.322;2023-07-24T09:38:33;2.60;;;2.40;;
819;SDS011;392;48.838;2.322;2023-07-24T09:41:01;2.70;;;2.60;;
819;SDS011;392;48.838;2.322;2023-07-24T09:43:30;2.47;;;2.27;;
819;SDS011;392;48.838;2.322;2023-07-24T09:45:58;2.77;;;2.57;;
819;SDS011;392;48.838;2.322;2023-07-24T09:48:26;2.80;;;2.70;;
819;SDS011;392;48.838;2.322;2023-07-24T09:50:54;2.80;;;2.60;;
819;SDS011;392;48.838;2.322;2023-07-24T09:53:26;3.50;;;3.23;;
819;SDS011;392;48.838;2.322;2023-07-24T09:56:01;2.60;;;2.50;;
819;SDS011;392;48.838;2.322;2023-07-24T09:58:32;2.63;;;2.53;;
819;SDS011;392;48.838;2.322;2023-07-24T10:01:01;3.07;;;2.90;;
819;SDS011;392;48.838;2.322;2023-07-24T10:03:32;2.73;;;2.63;;
819;SDS011;392;48.838;2.322;2023-07-24T10:06:01;2.97;;;2.83;;
819;SDS011;392;48.838;2.322;2023-07-24T10:08:30;2.87;;;2.77;;
819;SDS011;392;48.838;2.322;2023-07-24T10:10:58;2.77;;;2.57;;
819;SDS011;392;48.838;2.322;2023-07-24T10:13:26;2.20;;;2.10;;
819;SDS011;392;48.838;2.322;2023-07-24T10:15:57;2.73;;;2.57;;
819;SDS011;392;48.838;2.322;2023-07-24T10:18:25;2.60;;;2.50;;
819;SDS011;392;48.838;2.322;2023-07-24T10:21:00;2.40;;;2.30;;
819;SDS011;392;48.838;2.322;2023-07-24T10:23:28;3.70;;;3.50;;
819;SDS011;392;48.838;2.322;2023-07-24T10:25:56;3.33;;;3.23;;
819;SDS011;392;48.838;2.322;2023-07-24T10:28:30;3.20;;;3.00;;
819;SDS011;392;48.838;2.322;2023-07-24T10:31:01;3.00;;;2.90;;
819;SDS011;392;48.838;2.322;2023-07-24T10:33:31;2.70;;;2.50;;
819;SDS011;392;48.838;2.322;2023-07-24T10:36:05;2.90;;;2.80;;
819;SDS011;392;48.838;2.322;2023-07-24T10:38:36;2.70;;;2.60;;
819;SDS011;392;48.838;2.322;2023-07-24T10:41:07;3.20;;;3.00;;
819;SDS011;392;48.838;2.322;2023-07-24T10:43:40;2.80;;;2.60;;
819;SDS011;392;48.838;2.322;2023-07-24T10:46:10;3.50;;;3.20;;
819;SDS011;392;48.838;2.322;2023-07-24T10:48:41;3.20;;;3.00;;
819;SDS011;392;48.838;2.322;2023-07-24T10:51:09;3.43;;;3.23;;
819;SDS011;392;48.838;2.322;2023-07-24T10:53:41;2.60;;;2.50;;
819;SDS011;392;48.838;2.322;2023-07-24T10:56:12;2.70;;;2.60;;
819;SDS011;392;48.838;2.322;2023-07-24T10:58:40;3.20;;;3.00;;
819;SDS011;392;48.838;2.322;2023-07-24T11:01:10;3.43;;;3.23;;
819;SDS011;392;48.838;2.322;2023-07-24T11:03:39;3.77;;;2.50;;
819;SDS011;392;48.838;2.322;2023-07-24T11:06:12;2.80;;;2.60;;
819;SDS011;392;48.838;2.322;2023-07-24T11:08:41;2.63;;;2.43;;
819;SDS011;392;48.838;2.322;2023-07-24T11:11:10;4.40;;;2.90;;
819;SDS011;392;48.838;2.322;2023-07-24T11:13:37;2.60;;;2.50;;
819;SDS011;392;48.838;2.322;2023-07-24T11:16:06;3.10;;;2.90;;
819;SDS011;392;48.838;2.322;2023-07-24T11:18:47;3.03;;;2.83;;
819;SDS011;392;48.838;2.322;2023-07-24T11:21:18;3.23;;;3.03;;
819;SDS011;392;48.838;2.322;2023-07-24T11:23:48;3.17;;;2.87;;
819;SDS011;392;48.838;2.322;2023-07-24T11:26:18;2.70;;;2.50;;
819;SDS011;392;48.838;2.322;2023-07-24T11:28:46;2.37;;;2.27;;
819;SDS011;392;48.838;2.322;2023-07-24T11:31:16;2.73;;;2.53;;
819;SDS011;392;48.838;2.322;2023-07-24T11:33:47;3.00;;;2.90;;
819;SDS011;392;48.838;2.322;2023-07-24T11:36:16;3.17;;;2.97;;
819;SDS011;392;48.838;2.322;2023-07-24T11:38:44;2.57;;;2.47;;
819;SDS011;392;48.838;2.322;2023-07-24T11:41:12;3.30;;;2.80;;
819;SDS011;392;48.838;2.322;2023-07-24T11:43:45;3.13;;;2.93;;
819;SDS011;392;48.838;2.322;2023-07-24T11:46:24;2.97;;;2.87;;
819;SDS011;392;48.838;2.322;2023-07-24T11:48:55;2.70;;;2.60;;
819;SDS011;392;48.838;2.322;2023-07-24T11:51:22;2.90;;;2.80;;
819;SDS011;392;48.838;2.322;2023-07-24T11:53:51;10.03;;;2.70;;
819;SDS011;392;48.838;2.322;2023-07-24T11:56:19;2.83;;;2.63;;
819;SDS011;392;48.838;2.322;2023-07-24T11:58:47;3.33;;;3.13;;
819;SDS011;392;48.838;2.322;2023-07-24T12:01:15;3.20;;;3.00;;
819;SDS011;392;48.838;2.322;2023-07-24T12:03:43;5.80;;;3.30;;
819;SDS011;392;48.838;2.322;2023-07-24T12:06:15;3.17;;;2.97;;
819;SDS011;392;48.838;2.322;2023-07-24T12:08:43;3.07;;;2.77;;
819;SDS011;392;48.838;2.322;2023-07-24T12:11:18;2.87;;;2.67;;
819;SDS011;392;48.838;2.322;2023-07-24T12:13:47;2.33;;;2.23;;
819;SDS011;392;48.838;2.322;2023-07-24T12:16:15;3.23;;;2.60;;
819;SDS011;392;48.838;2.322;2023-07-24T12:18:44;2.90;;;2.63;;
819;SDS011;392;48.838;2.322;2023-07-24T12:21:11;3.63;;;3.40;;
819;SDS011;392;48.838;2.322;2023-07-24T12:23:49;2.90;;;2.80;;
819;SDS011;392;48.838;2.322;2023-07-24T12:26:16;2.40;;;2.30;;
819;SDS011;392;48.838;2.322;2023-07-24T12:28:44;3.23;;;3.03;;
819;SDS011;392;48.838;2.322;2023-07-24T12:31:11;2.80;;;2.70;;
819;SDS011;392;48.838;2.322;2023-07-24T12:33:39;3.00;;;2.80;;
819;SDS011;392;48.838;2.322;2023-07-24T12:36:07;2.87;;;2.73;;
819;SDS011;392;48.838;2.322;2023-07-24T12:38:34;3.30;;;3.10;;
819;SDS011;392;48.838;2.322;2023-07-24T12:41:03;3.07;;;2.80;;
819;SDS011;392;48.838;2.322;2023-07-24T12:43:31;2.90;;;2.70;;
819;SDS011;392;48.838;2.322;2023-07-24T12:45:58;2.77;;;2.57;;
819;SDS011;392;48.838;2.322;2023-07-24T12:48:25;2.83;;;2.73;;
819;SDS011;392;48.838;2.322;2023-07-24T12:50:53;2.90;;;2.70;;
819;SDS011;392;48.838;2.322;2023-07-24T12:53:21;3.07;;;2.80;;
819;SDS011;392;48.838;2.322;2023-07-24T12:55:49;3.10;;;2.90;;
819;SDS011;392;48.838;2.322;2023-07-24T12:58:19;3.20;;;3.10;;
819;SDS011;392;48.838;2.322;2023-07-24T13:00:47;2.83;;;2.63;;
819;SDS011;392;48.838;2.322;2023-07-24T13:03:14;3.57;;;2.87;;
819;SDS011;392;48.838;2.322;2023-07-24T13:05:42;2.87;;;2.67;;
819;SDS011;392;48.838;2.322;2023-07-24T13:08:10;2.70;;;2.50;;
819;SDS011;392;48.838;2.322;2023-07-24T13:10:38;3.10;;;2.90;;
819;SDS011;392;48.838;2.322;2023-07-24T13:13:06;2.97;;;2.80;;
819;SDS011;392;48.838;2.322;2023-07-24T13:15:35;3.33;;;3.13;;
819;SDS011;392;48.838;2.322;2023-07-24T13:18:03;3.03;;;2.83;;
819;SDS011;392;48.838;2.322;2023-07-24T13:20:31;3.50;;;3.20;;
819;SDS011;392;48.838;2.322;2023-07-24T13:22:58;2.70;;;2.50;;
819;SDS011;392;48.838;2.322;2023-07-24T13:25:27;3.30;;;3.00;;
819;SDS011;392;48.838;2.322;2023-07-24T13:27:54;2.60;;;2.50;;
819;SDS011;392;48.838;2.322;2023-07-24T13:30:21;3.10;;;2.90;;
819;SDS011;392;48.838;2.322;2023-07-24T13:32:50;3.10;;;2.90;;
819;SDS011;392;48.838;2.322;2023-07-24T13:35:18;3.63;;;3.30;;
819;SDS011;392;48.838;2.322;2023-07-24T13:37:47;3.50;;;3.30;;
819;SDS011;392;48.838;2.322;2023-07-24T13:40:16;3.37;;;3.17;;
819;SDS011;392;48.838;2.322;2023-07-24T13:42:44;3.30;;;3.10;;
819;SDS011;392;48.838;2.322;2023-07-24T13:45:11;2.87;;;2.77;;
819;SDS011;392;48.838;2.322;2023-07-24T13:47:38;3.23;;;3.13;;
819;SDS011;392;48.838;2.322;2023-07-24T13:50:07;3.00;;;2.80;;
819;SDS011;392;48.838;2.322;2023-07-24T13:52:36;3.17;;;2.97;;
819;SDS011;392;48.838;2.322;2023-07-24T13:55:03;3.10;;;2.90;;
819;SDS011;392;48.838;2.322;2023-07-24T13:57:33;3.30;;;3.10;;
819;SDS011;392;48.838;2.322;2023-07-24T14:00:00;3.30;;;3.10;;
819;SDS011;392;48.838;2.322;2023-07-24T14:02:37;3.97;;;3.67;;
819;SDS011;392;48.838;2.322;2023-07-24T14:05:05;3.30;;;3.10;;
819;SDS011;392;48.838;2.322;2023-07-24T14:07:36;3.40;;;3.20;;
819;SDS011;392;48.838;2.322;2023-07-24T14:10:05;3.20;;;3.03;;
819;SDS011;392;48.838;2.322;2023-07-24T14:12:33;2.70;;;2.60;;
819;SDS011;392;48.838;2.322;2023-07-24T14:15:01;2.70;;;2.60;;
819;SDS011;392;48.838;2.322;2023-07-24T14:17:29;2.80;;;2.70;;
819;SDS011;392;48.838;2.322;2023-07-24T14:19:57;3.10;;;2.90;;
819;SDS011;392;48.838;2.322;2023-07-24T14:22:27;2.50;;;2.40;;
819;SDS011;392;48.838;2.322;2023-07-24T14:24:55;2.90;;;2.67;;
819;SDS011;392;48.838;2.322;2023-07-24T14:27:22;3.50;;;3.20;;
819;SDS011;392;48.838;2.322;2023-07-24T14:29:50;2.73;;;2.63;;
819;SDS011;392;48.838;2.322;2023-07-24T14:32:18;2.57;;;2.37;;
819;SDS011;392;48.838;2.322;2023-07-24T14:34:47;2.77;;;2.50;;
819;SDS011;392;48.838;2.322;2023-07-24T14:37:17;2.40;;;2.20;;
819;SDS011;392;48.838;2.322;2023-07-24T14:39:46;2.23;;;2.13;;
819;SDS011;392;48.838;2.322;2023-07-24T14:42:16;2.47;;;2.37;;
819;SDS011;392;48.838;2.322;2023-07-24T14:44:43;2.10;;;2.10;;
819;SDS011;392;48.838;2.322;2023-07-24T14:47:10;2.63;;;2.53;;
819;SDS011;392;48.838;2.322;2023-07-24T14:49:38;2.27;;;2.17;;
819;SDS011;392;48.838;2.322;2023-07-24T14:52:06;2.33;;;2.07;;
819;SDS011;392;48.838;2.322;2023-07-24T14:54:35;1.90;;;1.80;;
819;SDS011;392;48.838;2.322;2023-07-24T14:57:05;1.93;;;1.93;;
819;SDS011;392;48.838;2.322;2023-07-24T14:59:32;2.63;;;2.53;;
819;SDS011;392;48.838;2.322;2023-07-24T15:02:00;2.70;;;2.60;;
819;SDS011;392;48.838;2.322;2023-07-24T15:04:28;7.00;;;2.37;;
819;SDS011;392;48.838;2.322;2023-07-24T15:06:56;2.20;;;2.10;;
819;SDS011;392;48.838;2.322;2023-07-24T15:09:23;2.17;;;2.07;;
819;SDS011;392;48.838;2.322;2023-07-24T15:11:50;2.33;;;2.27;;
819;SDS011;392;48.838;2.322;2023-07-24T15:14:19;2.60;;;2.50;;
819;SDS011;392;48.838;2.322;2023-07-24T15:16:47;2.40;;;2.20;;
819;SDS011;392;48.838;2.322;2023-07-24T15:19:15;2.33;;;2.23;;
819;SDS011;392;48.838;2.322;2023-07-24T15:21:43;1.90;;;1.90;;
819;SDS011;392;48.838;2.322;2023-07-24T15:24:11;1.80;;;1.70;;
819;SDS011;392;48.838;2.322;2023-07-24T15:26:42;2.20;;;2.10;;
819;SDS011;392;48.838;2.322;2023-07-24T15:29:10;2.07;;;1.90;;
819;SDS011;392;48.838;2.322;2023-07-24T15:31:41;2.00;;;1.90;;
819;SDS011;392;48.838;2.322;2023-07-24T15:34:08;2.37;;;2.17;;
819;SDS011;392;48.838;2.322;2023-07-24T15:36:36;2.33;;;2.23;;
819;SDS011;392;48.838;2.322;2023-07-24T15:39:03;2.47;;;2.27;;
819;SDS011;392;48.838;2.322;2023-07-24T15:41:31;2.10;;;2.00;;
819;SDS011;392;48.838;2.322;2023-07-24T15:43:58;2.50;;;2.30;;
819;SDS011;392;48.838;2.322;2023-07-24T15:46:26;2.37;;;2.27;;
819;SDS011;392;48.838;2.322;2023-07-24T15:48:58;2.53;;;2.33;;
819;SDS011;392;48.838;2.322;2023-07-24T15:51:26;2.20;;;1.97;;
819;SDS011;392;48.838;2.322;2023-07-24T15:53:55;2.23;;;2.10;;